Terminal Aerodrome Forecast
Issued by NWS Sterling, VA

Current Version | Previous Version | Text Only | Print | Product List | Glossary Off
Versions: 1 2 3 4 5 6 7 8 9 10 11 12 13 14 15 16 17 18 19 20 21 22 23 24

464
FTUS41 KLWX 151737
TAFDCA
TAF
KDCA 151737Z 1518/1624 VRB04KT 2SM -SN SCT008 OVC025
     FM152000 VRB04KT 6SM -SN BKN035 OVC050
     FM152100 VRB04KT P6SM BKN050
     FM160000 26006KT P6SM SCT050 SCT250
     FM161100 23006KT P6SM SCT050 BKN130
     FM161500 23008G16KT P6SM SCT050 BKN130=

USA.gov is the U.S. government's official web portal to all federal, state and local government web resources and services.